CheckWX is a tool to help pilots better visualize weather data.  It is not intended as a substitute for an official pre-flight weather briefing.

19:27:12 UTC

KADW METAR
Joint Base Andrews Airport
Camp Springs, Maryland, USA
Current

15 mins ago

KADW 261912Z AUTO 10003KT 10SM BKN039 BKN065 26/23 A2996 RMK AO2 RAE10DZB10E12 SLP150 $
Observed
May-26 @ 19:12 UTC
Wind
  • 100° at 3 KTS
Visibility
10 SM
Flight Rules
VFR
Cloud Levels
  • Broken at 3,900' AGL
  • Broken at 6,500' AGL
Temperature
26°C / 79°F
Dewpoint
23°C / 73°F
Humidity
84%
Altimeter
29.96" Hg
Pressure
1014.52 hPa
Previous

31 mins ago

KADW 261856Z AUTO 21006KT 10SM -RA FEW013 BKN042 BKN065 26/22 A2997 RMK AO2 RAB38 SLP154 P0012 T02570220 $
Observed
May-26 @ 18:56 UTC
Wind
  • 210° at 6 KTS
Visibility
10 SM
Flight Rules
VFR
Conditions
Light Rain
Cloud Levels
  • Few at 1,300' AGL
  • Broken at 4,200' AGL
  • Broken at 6,500' AGL
Temperature
26°C / 79°F
Dewpoint
22°C / 72°F
Humidity
79%
Altimeter
29.97" Hg
Pressure
1014.92 hPa
Current Rain
0.12"
Previous

49 mins ago

KADW 261838Z AUTO 03004KT 10SM -RA BKN044 BKN120 30/20 A2997 RMK AO2 RAB38 SLP153 $
Observed
May-26 @ 18:38 UTC
Wind
  • 030° at 4 KTS
Visibility
10 SM
Flight Rules
VFR
Conditions
Light Rain
Cloud Levels
  • Broken at 4,400' AGL
  • Broken at 12,000' AGL
Temperature
30°C / 86°F
Dewpoint
20°C / 68°F
Heat Index
32°C / 89°F
Humidity
55%
Altimeter
29.97" Hg
Pressure
1014.92 hPa